sensor_id;sensor_type;location;lat;lon;timestamp;temperature;humidity
17845;DHT22;9047;53.486;10.218;2024-02-16T00:01:02;10.90;99.90
17845;DHT22;9047;53.486;10.218;2024-02-16T00:03:30;10.80;99.90
17845;DHT22;9047;53.486;10.218;2024-02-16T00:05:58;10.80;99.90
17845;DHT22;9047;53.486;10.218;2024-02-16T00:08:27;10.70;99.90
17845;DHT22;9047;53.486;10.218;2024-02-16T00:10:55;10.70;99.90
17845;DHT22;9047;53.486;10.218;2024-02-16T00:13:22;10.70;99.90
17845;DHT22;9047;53.486;10.218;2024-02-16T00:15:50;10.60;99.90
17845;DHT22;9047;53.486;10.218;2024-02-16T00:18:17;10.60;99.90
17845;DHT22;9047;53.486;10.218;2024-02-16T00:20:43;10.60;99.90
17845;DHT22;9047;53.486;10.218;2024-02-16T00:23:11;10.60;99.90
17845;DHT22;9047;53.486;10.218;2024-02-16T00:25:40;10.60;99.90
17845;DHT22;9047;53.486;10.218;2024-02-16T00:28:07;10.60;99.90
17845;DHT22;9047;53.486;10.218;2024-02-16T00:30:34;10.60;99.90
17845;DHT22;9047;53.486;10.218;2024-02-16T00:33:03;10.60;99.90
17845;DHT22;9047;53.486;10.218;2024-02-16T00:35:30;10.60;99.90
17845;DHT22;9047;53.486;10.218;2024-02-16T00:37:58;10.60;99.90
17845;DHT22;9047;53.486;10.218;2024-02-16T00:40:25;10.60;99.90
17845;DHT22;9047;53.486;10.218;2024-02-16T00:42:55;10.60;99.90
17845;DHT22;9047;53.486;10.218;2024-02-16T00:45:22;10.60;99.90
17845;DHT22;9047;53.486;10.218;2024-02-16T00:47:48;10.60;99.90
17845;DHT22;9047;53.486;10.218;2024-02-16T00:50:18;10.60;99.90
17845;DHT22;9047;53.486;10.218;2024-02-16T00:52:45;10.60;99.90
17845;DHT22;9047;53.486;10.218;2024-02-16T00:55:12;10.60;99.90
17845;DHT22;9047;53.486;10.218;2024-02-16T00:57:39;10.60;99.90
17845;DHT22;9047;53.486;10.218;2024-02-16T01:00:09;10.70;99.90
17845;DHT22;9047;53.486;10.218;2024-02-16T01:02:36;10.60;99.90
17845;DHT22;9047;53.486;10.218;2024-02-16T01:05:04;10.60;99.90
17845;DHT22;9047;53.486;10.218;2024-02-16T01:07:31;10.50;99.90
17845;DHT22;9047;53.486;10.218;2024-02-16T01:09:58;10.50;99.90
17845;DHT22;9047;53.486;10.218;2024-02-16T01:12:28;10.50;99.90
17845;DHT22;9047;53.486;10.218;2024-02-16T01:14:56;10.40;99.90
17845;DHT22;9047;53.486;10.218;2024-02-16T01:17:24;10.40;99.90
17845;DHT22;9047;53.486;10.218;2024-02-16T01:19:52;10.40;99.90
17845;DHT22;9047;53.486;10.218;2024-02-16T01:22:18;10.40;99.90
17845;DHT22;9047;53.486;10.218;2024-02-16T01:24:46;10.40;99.90
17845;DHT22;9047;53.486;10.218;2024-02-16T01:27:15;10.30;99.90
17845;DHT22;9047;53.486;10.218;2024-02-16T01:29:42;10.30;99.90
17845;DHT22;9047;53.486;10.218;2024-02-16T01:32:09;10.30;99.90
17845;DHT22;9047;53.486;10.218;2024-02-16T01:34:38;10.30;99.90
17845;DHT22;9047;53.486;10.218;2024-02-16T01:37:05;10.30;99.90
17845;DHT22;9047;53.486;10.218;2024-02-16T01:39:35;10.30;99.90
17845;DHT22;9047;53.486;10.218;2024-02-16T01:42:02;10.30;99.90
17845;DHT22;9047;53.486;10.218;2024-02-16T01:44:29;10.30;99.90
17845;DHT22;9047;53.486;10.218;2024-02-16T01:46:56;10.30;99.90
17845;DHT22;9047;53.486;10.218;2024-02-16T01:49:22;10.30;99.90
17845;DHT22;9047;53.486;10.218;2024-02-16T01:51:51;10.30;99.90
17845;DHT22;9047;53.486;10.218;2024-02-16T01:54:18;10.40;99.90
17845;DHT22;9047;53.486;10.218;2024-02-16T01:56:45;10.30;99.90
17845;DHT22;9047;53.486;10.218;2024-02-16T01:59:13;10.40;99.90
17845;DHT22;9047;53.486;10.218;2024-02-16T02:01:40;10.30;99.90
17845;DHT22;9047;53.486;10.218;2024-02-16T02:04:07;10.30;99.90
17845;DHT22;9047;53.486;10.218;2024-02-16T02:06:34;10.30;99.90
17845;DHT22;9047;53.486;10.218;2024-02-16T02:09:03;10.30;99.90
17845;DHT22;9047;53.486;10.218;2024-02-16T02:11:30;10.30;99.90
17845;DHT22;9047;53.486;10.218;2024-02-16T02:13:59;10.30;99.90
17845;DHT22;9047;53.486;10.218;2024-02-16T02:16:26;10.30;99.90
17845;DHT22;9047;53.486;10.218;2024-02-16T02:18:53;10.30;99.90
17845;DHT22;9047;53.486;10.218;2024-02-16T02:21:22;10.30;99.90
17845;DHT22;9047;53.486;10.218;2024-02-16T02:23:50;10.30;99.90
17845;DHT22;9047;53.486;10.218;2024-02-16T02:26:17;10.30;99.90
17845;DHT22;9047;53.486;10.218;2024-02-16T02:28:44;10.30;99.90
17845;DHT22;9047;53.486;10.218;2024-02-16T02:31:11;10.30;99.90
17845;DHT22;9047;53.486;10.218;2024-02-16T02:33:38;10.30;99.90
17845;DHT22;9047;53.486;10.218;2024-02-16T02:36:05;10.30;99.90
17845;DHT22;9047;53.486;10.218;2024-02-16T02:38:32;10.30;99.90
17845;DHT22;9047;53.486;10.218;2024-02-16T02:41:01;10.30;99.90
17845;DHT22;9047;53.486;10.218;2024-02-16T02:43:30;10.30;99.90
17845;DHT22;9047;53.486;10.218;2024-02-16T02:45:59;10.30;99.90
17845;DHT22;9047;53.486;10.218;2024-02-16T02:48:25;10.30;99.90
17845;DHT22;9047;53.486;10.218;2024-02-16T02:50:53;10.30;99.90
17845;DHT22;9047;53.486;10.218;2024-02-16T02:53:19;10.30;99.90
17845;DHT22;9047;53.486;10.218;2024-02-16T02:55:47;10.30;99.90
17845;DHT22;9047;53.486;10.218;2024-02-16T02:58:31;10.30;99.90
17845;DHT22;9047;53.486;10.218;2024-02-16T03:01:02;10.20;99.90
17845;DHT22;9047;53.486;10.218;2024-02-16T03:03:32;10.20;99.90
17845;DHT22;9047;53.486;10.218;2024-02-16T03:05:59;10.20;99.90
17845;DHT22;9047;53.486;10.218;2024-02-16T03:08:27;10.20;99.90
17845;DHT22;9047;53.486;10.218;2024-02-16T03:10:55;10.10;99.90
17845;DHT22;9047;53.486;10.218;2024-02-16T03:13:26;10.10;99.90
17845;DHT22;9047;53.486;10.218;2024-02-16T03:15:55;10.10;99.90
17845;DHT22;9047;53.486;10.218;2024-02-16T03:18:22;10.10;99.90
17845;DHT22;9047;53.486;10.218;2024-02-16T03:20:49;10.10;99.90
17845;DHT22;9047;53.486;10.218;2024-02-16T03:23:16;10.10;99.90
17845;DHT22;9047;53.486;10.218;2024-02-16T03:25:43;10.10;99.90
17845;DHT22;9047;53.486;10.218;2024-02-16T03:28:12;10.10;99.90
17845;DHT22;9047;53.486;10.218;2024-02-16T03:30:39;10.10;99.90
17845;DHT22;9047;53.486;10.218;2024-02-16T03:33:07;10.10;99.90
17845;DHT22;9047;53.486;10.218;2024-02-16T03:35:34;10.10;99.90
17845;DHT22;9047;53.486;10.218;2024-02-16T03:38:01;10.10;99.90
17845;DHT22;9047;53.486;10.218;2024-02-16T03:40:29;10.10;99.90
17845;DHT22;9047;53.486;10.218;2024-02-16T03:42:56;10.10;99.90
17845;DHT22;9047;53.486;10.218;2024-02-16T03:45:23;10.20;99.90
17845;DHT22;9047;53.486;10.218;2024-02-16T03:47:50;10.10;99.90
17845;DHT22;9047;53.486;10.218;2024-02-16T03:50:19;10.10;99.90
17845;DHT22;9047;53.486;10.218;2024-02-16T03:52:46;10.10;99.90
17845;DHT22;9047;53.486;10.218;2024-02-16T03:55:13;10.20;99.90
17845;DHT22;9047;53.486;10.218;2024-02-16T03:57:40;10.10;99.90
17845;DHT22;9047;53.486;10.218;2024-02-16T04:00:07;10.10;99.90
17845;DHT22;9047;53.486;10.218;2024-02-16T04:02:34;10.00;99.90
17845;DHT22;9047;53.486;10.218;2024-02-16T04:05:02;10.00;99.90
17845;DHT22;9047;53.486;10.218;2024-02-16T04:07:31;10.00;99.90
17845;DHT22;9047;53.486;10.218;2024-02-16T04:09:58;10.00;99.90
17845;DHT22;9047;53.486;10.218;2024-02-16T04:12:26;10.00;99.90
17845;DHT22;9047;53.486;10.218;2024-02-16T04:14:54;10.00;99.90
17845;DHT22;9047;53.486;10.218;2024-02-16T04:17:21;10.00;99.90
17845;DHT22;9047;53.486;10.218;2024-02-16T04:19:48;10.00;99.90
17845;DHT22;9047;53.486;10.218;2024-02-16T04:22:14;10.00;99.90
17845;DHT22;9047;53.486;10.218;2024-02-16T04:24:45;10.00;99.90
17845;DHT22;9047;53.486;10.218;2024-02-16T04:27:12;10.00;99.90
17845;DHT22;9047;53.486;10.218;2024-02-16T04:29:40;10.00;99.90
17845;DHT22;9047;53.486;10.218;2024-02-16T04:32:07;10.00;99.90
17845;DHT22;9047;53.486;10.218;2024-02-16T04:34:34;10.00;99.90
17845;DHT22;9047;53.486;10.218;2024-02-16T04:37:01;10.00;99.90
17845;DHT22;9047;53.486;10.218;2024-02-16T04:39:27;10.00;99.90
17845;DHT22;9047;53.486;10.218;2024-02-16T04:41:58;10.10;99.90
17845;DHT22;9047;53.486;10.218;2024-02-16T04:44:26;10.10;99.90
17845;DHT22;9047;53.486;10.218;2024-02-16T04:46:53;10.10;99.90
17845;DHT22;9047;53.486;10.218;2024-02-16T04:49:21;10.10;99.90
17845;DHT22;9047;53.486;10.218;2024-02-16T04:51:48;10.10;99.90
17845;DHT22;9047;53.486;10.218;2024-02-16T04:54:14;10.10;99.90
17845;DHT22;9047;53.486;10.218;2024-02-16T04:56:41;10.10;99.90
17845;DHT22;9047;53.486;10.218;2024-02-16T04:59:10;10.10;99.90
17845;DHT22;9047;53.486;10.218;2024-02-16T05:01:36;10.20;99.90
17845;DHT22;9047;53.486;10.218;2024-02-16T05:04:04;10.20;99.90
17845;DHT22;9047;53.486;10.218;2024-02-16T05:06:30;10.20;99.90
17845;DHT22;9047;53.486;10.218;2024-02-16T05:08:57;10.20;99.90
17845;DHT22;9047;53.486;10.218;2024-02-16T05:11:24;10.20;99.90
17845;DHT22;9047;53.486;10.218;2024-02-16T05:13:52;10.20;99.90
17845;DHT22;9047;53.486;10.218;2024-02-16T05:16:21;10.10;99.90
17845;DHT22;9047;53.486;10.218;2024-02-16T05:18:47;10.20;99.90
17845;DHT22;9047;53.486;10.218;2024-02-16T05:21:15;10.10;99.90
17845;DHT22;9047;53.486;10.218;2024-02-16T05:23:42;10.10;99.90
17845;DHT22;9047;53.486;10.218;2024-02-16T05:26:08;10.10;99.90
17845;DHT22;9047;53.486;10.218;2024-02-16T05:28:36;10.20;99.90
17845;DHT22;9047;53.486;10.218;2024-02-16T05:31:13;10.20;99.90
17845;DHT22;9047;53.486;10.218;2024-02-16T05:33:43;10.20;99.90
17845;DHT22;9047;53.486;10.218;2024-02-16T05:36:11;10.20;99.90
17845;DHT22;9047;53.486;10.218;2024-02-16T05:38:38;10.20;99.90
17845;DHT22;9047;53.486;10.218;2024-02-16T05:41:08;10.20;99.90
17845;DHT22;9047;53.486;10.218;2024-02-16T05:43:37;10.20;99.90
17845;DHT22;9047;53.486;10.218;2024-02-16T05:46:06;10.20;99.90
17845;DHT22;9047;53.486;10.218;2024-02-16T05:48:33;10.20;99.90
17845;DHT22;9047;53.486;10.218;2024-02-16T05:51:06;10.10;99.90
17845;DHT22;9047;53.486;10.218;2024-02-16T05:53:34;10.10;99.90
17845;DHT22;9047;53.486;10.218;2024-02-16T05:56:01;10.10;99.90
17845;DHT22;9047;53.486;10.218;2024-02-16T05:58:28;10.20;99.90
17845;DHT22;9047;53.486;10.218;2024-02-16T06:00:55;10.20;99.90
17845;DHT22;9047;53.486;10.218;2024-02-16T06:03:23;10.20;99.90
17845;DHT22;9047;53.486;10.218;2024-02-16T06:05:51;10.20;99.90
17845;DHT22;9047;53.486;10.218;2024-02-16T06:08:20;10.20;99.90
17845;DHT22;9047;53.486;10.218;2024-02-16T06:10:51;10.20;99.90
17845;DHT22;9047;53.486;10.218;2024-02-16T06:13:22;10.10;99.90
17845;DHT22;9047;53.486;10.218;2024-02-16T06:15:50;10.10;99.90
17845;DHT22;9047;53.486;10.218;2024-02-16T06:18:17;10.10;99.90
17845;DHT22;9047;53.486;10.218;2024-02-16T06:20:44;10.10;99.90
17845;DHT22;9047;53.486;10.218;2024-02-16T06:23:12;10.10;99.90
17845;DHT22;9047;53.486;10.218;2024-02-16T06:25:43;10.10;99.90
17845;DHT22;9047;53.486;10.218;2024-02-16T06:28:10;10.10;99.90
17845;DHT22;9047;53.486;10.218;2024-02-16T06:30:39;10.10;99.90
17845;DHT22;9047;53.486;10.218;2024-02-16T06:33:07;10.10;99.90
17845;DHT22;9047;53.486;10.218;2024-02-16T06:35:33;10.00;99.90
17845;DHT22;9047;53.486;10.218;2024-02-16T06:38:00;10.00;99.90
17845;DHT22;9047;53.486;10.218;2024-02-16T06:40:27;10.00;99.90
17845;DHT22;9047;53.486;10.218;2024-02-16T06:42:57;10.00;99.90
17845;DHT22;9047;53.486;10.218;2024-02-16T06:45:24;10.00;99.90
17845;DHT22;9047;53.486;10.218;2024-02-16T06:47:52;10.00;99.90
17845;DHT22;9047;53.486;10.218;2024-02-16T06:50:18;10.00;99.90
17845;DHT22;9047;53.486;10.218;2024-02-16T06:52:45;9.90;99.90
17845;DHT22;9047;53.486;10.218;2024-02-16T06:55:12;9.90;99.90
17845;DHT22;9047;53.486;10.218;2024-02-16T06:57:40;9.90;99.90
17845;DHT22;9047;53.486;10.218;2024-02-16T07:00:14;9.90;99.90
17845;DHT22;9047;53.486;10.218;2024-02-16T07:02:42;9.90;99.90
17845;DHT22;9047;53.486;10.218;2024-02-16T07:05:09;9.90;99.90
17845;DHT22;9047;53.486;10.218;2024-02-16T07:07:36;9.90;99.90
17845;DHT22;9047;53.486;10.218;2024-02-16T07:10:03;9.90;99.90
17845;DHT22;9047;53.486;10.218;2024-02-16T07:12:33;9.90;99.90
17845;DHT22;9047;53.486;10.218;2024-02-16T07:15:03;10.00;99.90
17845;DHT22;9047;53.486;10.218;2024-02-16T07:17:32;10.00;99.90
17845;DHT22;9047;53.486;10.218;2024-02-16T07:20:02;10.00;99.90
17845;DHT22;9047;53.486;10.218;2024-02-16T07:22:32;10.00;99.90
17845;DHT22;9047;53.486;10.218;2024-02-16T07:25:00;10.00;99.90
17845;DHT22;9047;53.486;10.218;2024-02-16T07:27:28;10.00;99.90
17845;DHT22;9047;53.486;10.218;2024-02-16T07:29:59;10.00;99.90
17845;DHT22;9047;53.486;10.218;2024-02-16T07:32:26;10.00;99.90
17845;DHT22;9047;53.486;10.218;2024-02-16T07:34:54;10.00;99.90
17845;DHT22;9047;53.486;10.218;2024-02-16T07:37:21;10.00;99.90
17845;DHT22;9047;53.486;10.218;2024-02-16T07:39:49;10.00;99.90
17845;DHT22;9047;53.486;10.218;2024-02-16T07:42:16;10.10;99.90
17845;DHT22;9047;53.486;10.218;2024-02-16T07:44:43;10.10;99.90
17845;DHT22;9047;53.486;10.218;2024-02-16T07:47:11;10.20;99.90
17845;DHT22;9047;53.486;10.218;2024-02-16T07:49:38;10.20;99.90
17845;DHT22;9047;53.486;10.218;2024-02-16T07:52:08;10.30;99.90
17845;DHT22;9047;53.486;10.218;2024-02-16T07:54:35;10.40;99.90
17845;DHT22;9047;53.486;10.218;2024-02-16T07:57:02;10.40;99.90
17845;DHT22;9047;53.486;10.218;2024-02-16T07:59:29;10.50;99.90
17845;DHT22;9047;53.486;10.218;2024-02-16T08:01:57;10.50;99.90
17845;DHT22;9047;53.486;10.218;2024-02-16T08:04:25;10.60;99.90
17845;DHT22;9047;53.486;10.218;2024-02-16T08:06:52;10.60;99.90
17845;DHT22;9047;53.486;10.218;2024-02-16T08:09:23;10.70;99.90
17845;DHT22;9047;53.486;10.218;2024-02-16T08:11:50;10.70;99.90
17845;DHT22;9047;53.486;10.218;2024-02-16T08:14:17;10.80;99.90
17845;DHT22;9047;53.486;10.218;2024-02-16T08:16:44;10.90;99.90
17845;DHT22;9047;53.486;10.218;2024-02-16T08:19:11;10.90;99.90
17845;DHT22;9047;53.486;10.218;2024-02-16T08:21:39;10.90;99.90
17845;DHT22;9047;53.486;10.218;2024-02-16T08:24:10;11.00;99.90
17845;DHT22;9047;53.486;10.218;2024-02-16T08:26:39;11.10;99.90
17845;DHT22;9047;53.486;10.218;2024-02-16T08:29:06;11.20;99.90
17845;DHT22;9047;53.486;10.218;2024-02-16T08:31:35;11.40;99.90
17845;DHT22;9047;53.486;10.218;2024-02-16T08:34:03;11.40;99.90
17845;DHT22;9047;53.486;10.218;2024-02-16T08:36:32;11.50;99.90
17845;DHT22;9047;53.486;10.218;2024-02-16T08:38:59;11.60;99.90
17845;DHT22;9047;53.486;10.218;2024-02-16T08:41:28;11.70;99.90
17845;DHT22;9047;53.486;10.218;2024-02-16T08:43:57;11.70;99.90
17845;DHT22;9047;53.486;10.218;2024-02-16T08:46:24;11.80;99.90
17845;DHT22;9047;53.486;10.218;2024-02-16T08:48:52;11.70;99.90
17845;DHT22;9047;53.486;10.218;2024-02-16T08:51:19;11.70;99.90
17845;DHT22;9047;53.486;10.218;2024-02-16T08:53:48;11.70;99.90
17845;DHT22;9047;53.486;10.218;2024-02-16T08:56:23;11.70;99.90
17845;DHT22;9047;53.486;10.218;2024-02-16T08:58:50;11.80;99.90
17845;DHT22;9047;53.486;10.218;2024-02-16T09:01:19;11.80;99.90
17845;DHT22;9047;53.486;10.218;2024-02-16T09:03:45;11.80;99.90
17845;DHT22;9047;53.486;10.218;2024-02-16T09:06:12;11.90;99.90
17845;DHT22;9047;53.486;10.218;2024-02-16T09:08:39;11.90;99.90
17845;DHT22;9047;53.486;10.218;2024-02-16T09:11:06;12.00;99.90
17845;DHT22;9047;53.486;10.218;2024-02-16T09:13:33;12.00;99.90
17845;DHT22;9047;53.486;10.218;2024-02-16T09:16:02;12.20;99.90
17845;DHT22;9047;53.486;10.218;2024-02-16T09:18:31;12.30;99.90
17845;DHT22;9047;53.486;10.218;2024-02-16T09:20:59;12.50;99.90
17845;DHT22;9047;53.486;10.218;2024-02-16T09:23:26;12.60;99.90
17845;DHT22;9047;53.486;10.218;2024-02-16T09:25:54;12.80;99.90
17845;DHT22;9047;53.486;10.218;2024-02-16T09:28:22;12.90;99.90
17845;DHT22;9047;53.486;10.218;2024-02-16T09:30:48;12.90;99.90
17845;DHT22;9047;53.486;10.218;2024-02-16T09:33:16;13.10;99.90
17845;DHT22;9047;53.486;10.218;2024-02-16T09:35:45;13.10;99.90
17845;DHT22;9047;53.486;10.218;2024-02-16T09:38:13;13.10;99.90
17845;DHT22;9047;53.486;10.218;2024-02-16T09:40:39;13.20;99.90
17845;DHT22;9047;53.486;10.218;2024-02-16T09:43:07;13.20;99.90
17845;DHT22;9047;53.486;10.218;2024-02-16T09:45:34;13.20;99.90
17845;DHT22;9047;53.486;10.218;2024-02-16T09:48:02;13.20;99.90
17845;DHT22;9047;53.486;10.218;2024-02-16T09:50:31;13.10;99.90
17845;DHT22;9047;53.486;10.218;2024-02-16T09:53:04;13.10;99.90
17845;DHT22;9047;53.486;10.218;2024-02-16T09:55:34;13.20;99.90
17845;DHT22;9047;53.486;10.218;2024-02-16T09:58:01;13.20;99.90
17845;DHT22;9047;53.486;10.218;2024-02-16T10:00:30;13.20;99.90
17845;DHT22;9047;53.486;10.218;2024-02-16T10:02:57;13.20;99.90
17845;DHT22;9047;53.486;10.218;2024-02-16T10:05:24;13.30;99.90
17845;DHT22;9047;53.486;10.218;2024-02-16T10:07:52;13.30;99.90
17845;DHT22;9047;53.486;10.218;2024-02-16T10:10:31;13.30;99.90
17845;DHT22;9047;53.486;10.218;2024-02-16T10:13:02;13.50;99.90
17845;DHT22;9047;53.486;10.218;2024-02-16T10:15:30;13.60;99.90
17845;DHT22;9047;53.486;10.218;2024-02-16T10:17:58;13.70;99.90
17845;DHT22;9047;53.486;10.218;2024-02-16T10:20:26;13.80;99.90
17845;DHT22;9047;53.486;10.218;2024-02-16T10:23:06;13.90;99.90
17845;DHT22;9047;53.486;10.218;2024-02-16T10:25:35;13.90;99.90
17845;DHT22;9047;53.486;10.218;2024-02-16T10:28:06;14.00;99.90
17845;DHT22;9047;53.486;10.218;2024-02-16T10:30:36;14.20;99.90
17845;DHT22;9047;53.486;10.218;2024-02-16T10:33:04;14.40;99.90
17845;DHT22;9047;53.486;10.218;2024-02-16T10:35:34;14.50;99.90
17845;DHT22;9047;53.486;10.218;2024-02-16T10:38:05;14.70;99.90
17845;DHT22;9047;53.486;10.218;2024-02-16T10:40:39;14.80;99.90
17845;DHT22;9047;53.486;10.218;2024-02-16T10:43:13;14.90;99.90
17845;DHT22;9047;53.486;10.218;2024-02-16T10:45:42;15.00;99.90
17845;DHT22;9047;53.486;10.218;2024-02-16T10:48:11;15.00;99.90
17845;DHT22;9047;53.486;10.218;2024-02-16T10:50:38;15.00;99.90
17845;DHT22;9047;53.486;10.218;2024-02-16T10:53:11;15.00;99.90
17845;DHT22;9047;53.486;10.218;2024-02-16T10:55:43;14.90;99.90
17845;DHT22;9047;53.486;10.218;2024-02-16T10:58:11;14.90;99.90
17845;DHT22;9047;53.486;10.218;2024-02-16T11:00:50;14.80;99.90
17845;DHT22;9047;53.486;10.218;2024-02-16T11:03:20;14.80;99.90
17845;DHT22;9047;53.486;10.218;2024-02-16T11:05:48;14.90;99.90
17845;DHT22;9047;53.486;10.218;2024-02-16T11:08:17;14.90;99.90
17845;DHT22;9047;53.486;10.218;2024-02-16T11:10:59;15.00;99.90
17845;DHT22;9047;53.486;10.218;2024-02-16T11:13:27;15.10;99.90
17845;DHT22;9047;53.486;10.218;2024-02-16T11:16:00;15.20;99.90
17845;DHT22;9047;53.486;10.218;2024-02-16T11:18:29;15.30;99.90
17845;DHT22;9047;53.486;10.218;2024-02-16T11:21:00;15.50;99.90
17845;DHT22;9047;53.486;10.218;2024-02-16T11:23:30;15.60;99.90
17845;DHT22;9047;53.486;10.218;2024-02-16T11:26:04;15.80;99.90
17845;DHT22;9047;53.486;10.218;2024-02-16T11:28:35;15.90;99.90
17845;DHT22;9047;53.486;10.218;2024-02-16T11:31:05;16.00;99.90
17845;DHT22;9047;53.486;10.218;2024-02-16T11:33:33;16.10;99.90
17845;DHT22;9047;53.486;10.218;2024-02-16T11:36:05;16.00;99.90
17845;DHT22;9047;53.486;10.218;2024-02-16T11:38:34;16.10;99.90
17845;DHT22;9047;53.486;10.218;2024-02-16T11:41:03;16.00;99.90
17845;DHT22;9047;53.486;10.218;2024-02-16T11:43:31;16.00;99.90
17845;DHT22;9047;53.486;10.218;2024-02-16T11:45:59;16.00;99.90
17845;DHT22;9047;53.486;10.218;2024-02-16T11:48:28;16.00;99.90
17845;DHT22;9047;53.486;10.218;2024-02-16T11:51:02;16.00;99.90
17845;DHT22;9047;53.486;10.218;2024-02-16T11:53:29;16.10;99.90
17845;DHT22;9047;53.486;10.218;2024-02-16T11:55:58;16.00;99.90
17845;DHT22;9047;53.486;10.218;2024-02-16T11:58:28;16.10;99.90
17845;DHT22;9047;53.486;10.218;2024-02-16T12:00:57;16.10;99.90
17845;DHT22;9047;53.486;10.218;2024-02-16T12:03:26;16.20;99.90
17845;DHT22;9047;53.486;10.218;2024-02-16T12:05:56;16.20;99.90
17845;DHT22;9047;53.486;10.218;2024-02-16T12:08:24;16.30;99.90
17845;DHT22;9047;53.486;10.218;2024-02-16T12:10:51;16.30;99.90
17845;DHT22;9047;53.486;10.218;2024-02-16T12:13:19;16.30;99.90
17845;DHT22;9047;53.486;10.218;2024-02-16T12:15:50;16.30;99.90
17845;DHT22;9047;53.486;10.218;2024-02-16T12:18:21;16.30;99.90
17845;DHT22;9047;53.486;10.218;2024-02-16T12:20:59;16.30;99.90
17845;DHT22;9047;53.486;10.218;2024-02-16T12:23:26;16.30;99.90
17845;DHT22;9047;53.486;10.218;2024-02-16T12:25:53;16.30;99.90
17845;DHT22;9047;53.486;10.218;2024-02-16T12:28:25;16.30;99.90
17845;DHT22;9047;53.486;10.218;2024-02-16T12:30:55;16.30;99.90
17845;DHT22;9047;53.486;10.218;2024-02-16T12:33:24;16.40;99.90
17845;DHT22;9047;53.486;10.218;2024-02-16T12:35:52;16.30;99.90
17845;DHT22;9047;53.486;10.218;2024-02-16T12:38:20;16.30;99.90
17845;DHT22;9047;53.486;10.218;2024-02-16T12:40:49;16.30;99.90
17845;DHT22;9047;53.486;10.218;2024-02-16T12:43:16;16.30;99.90
17845;DHT22;9047;53.486;10.218;2024-02-16T12:45:46;16.30;99.90
17845;DHT22;9047;53.486;10.218;2024-02-16T12:48:16;16.40;99.90
17845;DHT22;9047;53.486;10.218;2024-02-16T12:50:46;16.40;99.90
17845;DHT22;9047;53.486;10.218;2024-02-16T12:53:14;16.40;99.90
17845;DHT22;9047;53.486;10.218;2024-02-16T12:55:45;16.40;99.90
17845;DHT22;9047;53.486;10.218;2024-02-16T12:58:15;16.30;99.90
17845;DHT22;9047;53.486;10.218;2024-02-16T13:00:48;16.30;99.90
17845;DHT22;9047;53.486;10.218;2024-02-16T13:03:17;16.30;99.90
17845;DHT22;9047;53.486;10.218;2024-02-16T13:05:46;16.30;99.90
17845;DHT22;9047;53.486;10.218;2024-02-16T13:08:17;16.20;99.90
17845;DHT22;9047;53.486;10.218;2024-02-16T13:10:48;16.10;99.90
17845;DHT22;9047;53.486;10.218;2024-02-16T13:13:18;16.10;99.90
17845;DHT22;9047;53.486;10.218;2024-02-16T13:15:47;16.10;99.90
17845;DHT22;9047;53.486;10.218;2024-02-16T13:18:16;16.00;99.90
17845;DHT22;9047;53.486;10.218;2024-02-16T13:20:44;15.90;99.90
17845;DHT22;9047;53.486;10.218;2024-02-16T13:23:12;15.80;99.90
17845;DHT22;9047;53.486;10.218;2024-02-16T13:25:39;15.80;99.90
17845;DHT22;9047;53.486;10.218;2024-02-16T13:28:08;15.80;99.90
17845;DHT22;9047;53.486;10.218;2024-02-16T13:30:34;15.70;99.90
17845;DHT22;9047;53.486;10.218;2024-02-16T13:33:03;15.70;99.90
17845;DHT22;9047;53.486;10.218;2024-02-16T13:35:31;15.60;99.90
17845;DHT22;9047;53.486;10.218;2024-02-16T13:38:00;15.60;99.90
17845;DHT22;9047;53.486;10.218;2024-02-16T13:40:30;15.50;99.90
17845;DHT22;9047;53.486;10.218;2024-02-16T13:42:59;15.50;99.90
17845;DHT22;9047;53.486;10.218;2024-02-16T13:45:27;15.50;99.90
17845;DHT22;9047;53.486;10.218;2024-02-16T13:47:56;15.50;99.90
17845;DHT22;9047;53.486;10.218;2024-02-16T13:50:24;15.50;99.90
17845;DHT22;9047;53.486;10.218;2024-02-16T13:52:53;15.50;99.90
17845;DHT22;9047;53.486;10.218;2024-02-16T13:55:20;15.50;99.90
17845;DHT22;9047;53.486;10.218;2024-02-16T13:57:47;15.50;99.90
17845;DHT22;9047;53.486;10.218;2024-02-16T14:00:23;15.60;99.90
17845;DHT22;9047;53.486;10.218;2024-02-16T14:02:50;15.60;99.90
17845;DHT22;9047;53.486;10.218;2024-02-16T14:05:18;15.60;99.90
17845;DHT22;9047;53.486;10.218;2024-02-16T14:07:45;15.60;99.90
17845;DHT22;9047;53.486;10.218;2024-02-16T14:10:14;15.50;99.90
17845;DHT22;9047;53.486;10.218;2024-02-16T14:12:41;15.60;99.90
17845;DHT22;9047;53.486;10.218;2024-02-16T14:15:08;15.50;99.90
17845;DHT22;9047;53.486;10.218;2024-02-16T14:17:40;15.50;99.90
17845;DHT22;9047;53.486;10.218;2024-02-16T14:20:09;15.50;99.90
17845;DHT22;9047;53.486;10.218;2024-02-16T14:22:36;15.50;99.90
17845;DHT22;9047;53.486;10.218;2024-02-16T14:25:03;15.50;99.90
17845;DHT22;9047;53.486;10.218;2024-02-16T14:27:33;15.50;99.90
17845;DHT22;9047;53.486;10.218;2024-02-16T14:29:59;15.40;99.90
17845;DHT22;9047;53.486;10.218;2024-02-16T14:32:26;15.40;99.90
17845;DHT22;9047;53.486;10.218;2024-02-16T14:34:53;15.40;99.90
17845;DHT22;9047;53.486;10.218;2024-02-16T14:37:20;15.30;99.90
17845;DHT22;9047;53.486;10.218;2024-02-16T14:39:47;15.30;99.90
17845;DHT22;9047;53.486;10.218;2024-02-16T14:42:14;15.20;99.90
17845;DHT22;9047;53.486;10.218;2024-02-16T14:44:43;15.20;99.90
17845;DHT22;9047;53.486;10.218;2024-02-16T14:47:11;15.10;99.90
17845;DHT22;9047;53.486;10.218;2024-02-16T14:49:51;15.10;99.90
17845;DHT22;9047;53.486;10.218;2024-02-16T14:52:18;15.00;99.90
17845;DHT22;9047;53.486;10.218;2024-02-16T14:54:46;15.00;99.90
17845;DHT22;9047;53.486;10.218;2024-02-16T14:57:13;14.90;99.90
17845;DHT22;9047;53.486;10.218;2024-02-16T14:59:47;14.90;99.90
17845;DHT22;9047;53.486;10.218;2024-02-16T15:02:14;14.80;99.90
17845;DHT22;9047;53.486;10.218;2024-02-16T15:04:41;14.80;99.90
17845;DHT22;9047;53.486;10.218;2024-02-16T15:07:09;14.70;99.90
17845;DHT22;9047;53.486;10.218;2024-02-16T15:09:36;14.70;99.90
17845;DHT22;9047;53.486;10.218;2024-02-16T15:12:04;14.70;99.90
17845;DHT22;9047;53.486;10.218;2024-02-16T15:14:32;14.60;99.90
17845;DHT22;9047;53.486;10.218;2024-02-16T15:17:02;14.60;99.90
17845;DHT22;9047;53.486;10.218;2024-02-16T15:19:34;14.60;99.90
17845;DHT22;9047;53.486;10.218;2024-02-16T15:22:01;14.60;99.90
17845;DHT22;9047;53.486;10.218;2024-02-16T15:24:28;14.50;99.90
17845;DHT22;9047;53.486;10.218;2024-02-16T15:26:55;14.40;99.90
17845;DHT22;9047;53.486;10.218;2024-02-16T15:29:24;14.40;99.90
17845;DHT22;9047;53.486;10.218;2024-02-16T15:31:50;14.30;99.90
17845;DHT22;9047;53.486;10.218;2024-02-16T15:34:21;14.20;99.90
17845;DHT22;9047;53.486;10.218;2024-02-16T15:36:49;14.20;99.90